Time;durP1;ratioP1;P1;durP2;ratioP2;P2;SDS_P1;SDS_P2;PMS_P1;PMS_P2;Temp;Humidity;BMP_temperature;BMP_pressure;BME280_temperature;BME280_humidity;BME280_pressure;Samples;Min_cycle;Max_cycle;Signal;HPM_P1;HPM_P2
2024/01/19 00:02:22;;;;;;;98.70;31.17;;;;;;;-2.12;100.00;96927.16;4994995;28;20887;-77
2024/01/19 00:04:48;;;;;;;172.35;48.17;;;;;;;-2.10;100.00;96927.75;4995559;28;20402;-76
2024/01/19 00:07:15;;;;;;;178.65;51.25;;;;;;;-2.10;100.00;96932.94;4995407;28;20502;-77
2024/01/19 00:09:41;;;;;;;152.83;45.90;;;;;;;-2.09;100.00;96933.75;4995196;28;20437;-77
2024/01/19 00:12:08;;;;;;;150.13;45.50;;;;;;;-2.07;100.00;96935.16;4995283;28;20410;-76
2024/01/19 00:14:34;;;;;;;114.45;38.58;;;;;;;-2.05;100.00;96935.81;4995236;28;20777;-76
2024/01/19 00:17:00;;;;;;;141.55;41.47;;;;;;;-2.04;100.00;96939.19;4995269;28;20451;-76
2024/01/19 00:19:27;;;;;;;120.07;38.03;;;;;;;-2.01;100.00;96936.22;4995266;28;20402;-76
2024/01/19 00:21:53;;;;;;;135.83;38.20;;;;;;;-1.99;100.00;96944.63;4995029;28;20922;-77
2024/01/19 00:24:20;;;;;;;144.23;43.05;;;;;;;-1.99;100.00;96942.84;4995174;28;20410;-76
2024/01/19 00:26:47;;;;;;;132.93;40.58;;;;;;;-2.01;100.00;96944.81;4994716;28;20406;-76
2024/01/19 00:29:13;;;;;;;145.93;43.50;;;;;;;-2.04;100.00;96950.38;4994923;28;20403;-77
2024/01/19 00:31:43;;;;;;;138.02;41.53;;;;;;;-2.05;100.00;96959.13;4994721;28;20490;-77
2024/01/19 00:34:09;;;;;;;156.32;46.08;;;;;;;-2.06;100.00;96956.72;4995160;28;20493;-76
2024/01/19 00:36:35;;;;;;;165.40;46.60;;;;;;;-2.07;100.00;96966.28;4994485;28;20422;-77
2024/01/19 00:39:01;;;;;;;159.90;47.40;;;;;;;-2.10;100.00;96958.84;4994329;28;20403;-77
2024/01/19 00:41:29;;;;;;;138.15;41.40;;;;;;;-2.13;100.00;96961.03;4994751;28;20405;-77
2024/01/19 00:43:55;;;;;;;143.87;42.30;;;;;;;-2.14;100.00;96964.59;4995172;28;20743;-77
2024/01/19 00:46:21;;;;;;;121.32;37.10;;;;;;;-2.17;100.00;96965.75;4994640;28;20411;-76
2024/01/19 00:48:48;;;;;;;117.47;37.35;;;;;;;-2.17;100.00;96970.94;4994801;28;20430;-77
2024/01/19 00:51:14;;;;;;;106.82;33.65;;;;;;;-2.16;100.00;96976.94;4993986;28;20879;-77
2024/01/19 00:53:41;;;;;;;105.85;32.58;;;;;;;-2.14;100.00;96980.16;4994484;28;20406;-76
2024/01/19 00:56:08;;;;;;;133.98;40.55;;;;;;;-2.14;100.00;96982.75;4994422;28;20428;-77
2024/01/19 00:58:37;;;;;;;120.40;37.55;;;;;;;-2.13;100.00;96985.16;4994430;28;20904;-75
2024/01/19 01:01:04;;;;;;;146.70;44.35;;;;;;;-2.13;100.00;96990.34;4994269;28;20399;-77
2024/01/19 01:03:30;;;;;;;151.63;45.45;;;;;;;-2.13;100.00;96994.72;4994229;28;20394;-76
2024/01/19 01:05:57;;;;;;;150.73;45.33;;;;;;;-2.14;100.00;96999.13;4994183;28;20418;-77
2024/01/19 01:08:25;;;;;;;154.40;47.28;;;;;;;-2.13;100.00;97005.91;4993921;28;20391;-77
2024/01/19 01:10:51;;;;;;;147.00;43.63;;;;;;;-2.13;100.00;97008.50;4994223;28;20410;-76
2024/01/19 01:13:18;;;;;;;191.70;55.13;;;;;;;-2.12;100.00;97012.72;4993685;28;20454;-76
2024/01/19 01:15:45;;;;;;;163.57;49.63;;;;;;;-2.11;100.00;97018.69;4993887;28;20418;-76
2024/01/19 01:18:12;;;;;;;190.77;55.65;;;;;;;-2.13;100.00;97026.66;4993894;28;20402;-76
2024/01/19 01:20:38;;;;;;;215.20;64.97;;;;;;;-2.13;100.00;97036.22;4993764;28;20481;-77
2024/01/19 01:23:04;;;;;;;205.73;62.42;;;;;;;-2.15;100.00;97036.38;4994383;28;20442;-77
2024/01/19 01:25:30;;;;;;;234.27;71.27;;;;;;;-2.15;100.00;97044.16;4993697;28;20406;-76
2024/01/19 01:27:57;;;;;;;220.18;67.80;;;;;;;-2.16;100.00;97045.16;4994114;28;20433;-77
2024/01/19 01:30:23;;;;;;;224.85;70.35;;;;;;;-2.17;100.00;97053.09;4993675;28;20402;-77
2024/01/19 01:32:51;;;;;;;205.43;63.15;;;;;;;-2.17;100.00;97053.91;4993737;28;20781;-77
2024/01/19 01:35:17;;;;;;;184.88;57.40;;;;;;;-2.17;100.00;97061.69;4993473;28;20412;-77
2024/01/19 01:37:43;;;;;;;232.85;69.53;;;;;;;-2.18;100.00;97067.84;4995388;28;20407;-76
2024/01/19 01:40:11;;;;;;;224.25;66.32;;;;;;;-2.19;100.00;97076.63;4995603;28;20457;-76
2024/01/19 01:42:37;;;;;;;220.90;66.13;;;;;;;-2.19;100.00;97074.03;4993950;28;20807;-76
2024/01/19 01:45:05;;;;;;;179.05;55.85;;;;;;;-2.17;100.00;97076.44;4993595;28;20410;-77
2024/01/19 01:47:31;;;;;;;163.60;51.43;;;;;;;-2.17;100.00;97074.66;4989780;28;20443;-76
2024/01/19 01:50:00;;;;;;;146.20;46.78;;;;;;;-2.14;100.00;97078.69;4991070;28;20409;-77
2024/01/19 01:52:26;;;;;;;125.97;39.60;;;;;;;-2.14;100.00;97079.50;4992180;28;20416;-77
2024/01/19 01:54:53;;;;;;;99.60;35.30;;;;;;;-2.12;100.00;97084.50;4992450;28;20780;-77
2024/01/19 01:57:22;;;;;;;110.95;35.92;;;;;;;-2.11;100.00;97093.91;4990567;28;20527;-76
2024/01/19 01:59:49;;;;;;;111.28;34.35;;;;;;;-2.11;100.00;97089.50;4992786;28;20434;-77
2024/01/19 02:02:16;;;;;;;103.40;32.90;;;;;;;-2.11;100.00;97089.50;4992657;28;20883;-76
2024/01/19 02:04:42;;;;;;;86.45;29.75;;;;;;;-2.10;100.00;97092.88;4992428;28;20437;-77
2024/01/19 02:07:09;;;;;;;81.32;27.80;;;;;;;-2.12;100.00;97097.47;4993912;28;20406;-76
2024/01/19 02:09:36;;;;;;;75.60;25.67;;;;;;;-2.12;100.00;97102.66;4994392;28;20468;-76
2024/01/19 02:12:03;;;;;;;84.35;27.27;;;;;;;-2.13;100.00;97104.44;4992959;28;20501;-76
2024/01/19 02:14:29;;;;;;;70.22;23.70;;;;;;;-2.13;100.00;97098.44;4992646;28;20497;-77
2024/01/19 02:16:56;;;;;;;60.08;22.60;;;;;;;-2.13;100.00;97099.25;4992841;28;20425;-77
2024/01/19 02:19:22;;;;;;;72.22;24.00;;;;;;;-2.13;100.00;97109.63;4992615;28;20934;-77
2024/01/19 02:21:48;;;;;;;84.72;25.63;;;;;;;-2.14;100.00;97110.59;4993005;28;20410;-77
2024/01/19 02:24:18;;;;;;;69.28;24.63;;;;;;;-2.16;100.00;97109.97;4992227;28;20465;-76
2024/01/19 02:26:44;;;;;;;71.13;23.73;;;;;;;-2.17;100.00;97110.13;4992563;28;20420;-76
2024/01/19 02:29:10;;;;;;;91.25;27.58;;;;;;;-2.16;100.00;97107.38;4992118;28;20879;-77
2024/01/19 02:31:36;;;;;;;75.77;24.77;;;;;;;-2.17;100.00;97108.34;4992572;28;20876;-77
2024/01/19 02:34:03;;;;;;;111.22;34.13;;;;;;;-2.17;100.00;97116.13;4992806;28;20394;-77
2024/01/19 02:36:29;;;;;;;169.15;52.90;;;;;;;-2.19;100.00;97105.16;4992274;28;20418;-77
2024/01/19 02:38:55;;;;;;;175.00;51.70;;;;;;;-2.22;100.00;97110.69;4992290;28;20414;-77
2024/01/19 02:41:22;;;;;;;178.65;52.70;;;;;;;-2.24;100.00;97112.63;4992714;28;20405;-77
2024/01/19 02:43:49;;;;;;;192.70;60.85;;;;;;;-2.27;100.00;97118.19;4996416;28;20409;-76
2024/01/19 02:46:17;;;;;;;199.98;62.35;;;;;;;-2.28;100.00;97120.94;4992641;28;20485;-76
2024/01/19 02:48:44;;;;;;;239.47;72.87;;;;;;;-2.30;100.00;97122.91;4992251;28;20582;-76
2024/01/19 02:51:10;;;;;;;193.75;61.08;;;;;;;-2.33;100.00;97118.09;4992395;28;20465;-77
2024/01/19 02:53:36;;;;;;;172.13;52.38;;;;;;;-2.39;100.00;97115.22;4992153;28;20409;-76
2024/01/19 02:56:02;;;;;;;132.95;44.75;;;;;;;-2.48;100.00;97126.63;4992047;28;20429;-76
2024/01/19 02:58:30;;;;;;;105.13;38.20;;;;;;;-2.58;100.00;97123.50;4992561;28;20402;-76
2024/01/19 03:00:56;;;;;;;127.82;45.03;;;;;;;-2.70;100.00;97130.06;4991901;28;20446;-76
2024/01/19 03:03:22;;;;;;;98.27;37.57;;;;;;;-2.79;100.00;97134.50;4992321;28;20406;-76
2024/01/19 03:05:48;;;;;;;80.53;31.95;;;;;;;-2.88;100.00;97137.31;4991411;28;20406;-77
2024/01/19 03:08:14;;;;;;;105.57;37.40;;;;;;;-2.97;100.00;97133.19;4991987;28;20403;-76
2024/01/19 03:10:41;;;;;;;111.35;39.97;;;;;;;-3.03;100.00;97136.47;4991745;28;20541;-77
2024/01/19 03:13:07;;;;;;;144.07;48.40;;;;;;;-3.10;100.00;97131.16;4991551;28;20829;-76
2024/01/19 03:15:35;;;;;;;104.88;38.72;;;;;;;-3.15;100.00;97138.63;4992142;28;20426;-76
2024/01/19 03:18:01;;;;;;;126.10;43.25;;;;;;;-3.20;100.00;97141.72;4992768;28;20461;-77
2024/01/19 03:20:27;;;;;;;121.82;43.30;;;;;;;-3.22;100.00;97153.22;4992262;28;20800;-77
2024/01/19 03:22:54;;;;;;;106.43;38.13;;;;;;;-3.25;100.00;97140.63;4992097;28;20415;-76
2024/01/19 03:25:20;;;;;;;128.80;44.95;;;;;;;-3.29;100.00;97147.91;4991605;28;20438;-76
2024/01/19 03:27:46;;;;;;;160.45;52.38;;;;;;;-3.30;100.00;97150.66;4991595;28;20413;-76
2024/01/19 03:30:15;;;;;;;169.63;56.13;;;;;;;-3.28;100.00;97157.31;4991831;28;20496;-76
2024/01/19 03:32:42;;;;;;;130.75;46.38;;;;;;;-3.26;100.00;97170.06;4991714;28;21001;-76
2024/01/19 03:35:08;;;;;;;128.80;44.08;;;;;;;-3.24;100.00;97165.53;4990879;28;20529;-76
2024/01/19 03:37:35;;;;;;;132.38;43.63;;;;;;;-3.23;100.00;97164.53;4991528;28;20601;-76
2024/01/19 03:40:01;;;;;;;125.47;43.10;;;;;;;-3.23;100.00;97161.94;4991458;28;20469;-76
2024/01/19 03:42:28;;;;;;;132.38;44.63;;;;;;;-3.23;100.00;97161.94;4991436;28;20764;-76
2024/01/19 03:44:55;;;;;;;106.68;38.75;;;;;;;-3.26;100.00;97168.28;4991024;28;20406;-77
2024/01/19 03:47:22;;;;;;;97.05;35.33;;;;;;;-3.28;100.00;97175.41;4991265;28;20429;-76
2024/01/19 03:49:49;;;;;;;150.60;51.50;;;;;;;-3.28;100.00;97174.59;4991606;28;20402;-76
2024/01/19 03:52:16;;;;;;;137.02;47.45;;;;;;;-3.27;100.00;97171.84;4991394;28;20406;-76
2024/01/19 03:54:42;;;;;;;153.63;53.25;;;;;;;-3.27;100.00;97171.84;4991227;28;20402;-76
2024/01/19 03:57:08;;;;;;;139.32;46.42;;;;;;;-3.26;100.00;97175.25;4991428;28;20509;-76
2024/01/19 03:59:34;;;;;;;116.25;42.05;;;;;;;-3.27;100.00;97173.63;4991709;28;20399;-76
2024/01/19 04:02:01;;;;;;;98.50;37.27;;;;;;;-3.29;100.00;97166.03;4991548;28;20895;-76
2024/01/19 04:04:27;;;;;;;138.02;48.15;;;;;;;-3.30;100.00;97163.59;4991117;28;20426;-76
2024/01/19 04:06:55;;;;;;;121.37;43.97;;;;;;;-3.30;100.00;97164.41;4991379;28;20401;-76
2024/01/19 04:09:21;;;;;;;118.25;42.63;;;;;;;-3.32;100.00;97163.81;4991125;28;20774;-76
2024/01/19 04:11:48;;;;;;;102.18;38.58;;;;;;;-3.34;100.00;97167.53;4991098;28;20493;-76
2024/01/19 04:14:15;;;;;;;94.13;35.20;;;;;;;-3.39;100.00;97168.03;4991370;28;20472;-76
2024/01/19 04:16:41;;;;;;;80.60;32.45;;;;;;;-3.42;100.00;97170.94;4991069;28;20426;-76
2024/01/19 04:19:07;;;;;;;74.20;30.67;;;;;;;-3.46;100.00;97172.28;4991220;28;20406;-76
2024/01/19 04:21:33;;;;;;;89.30;31.08;;;;;;;-3.50;100.00;97178.75;4991117;28;20469;-76
2024/01/19 04:24:02;;;;;;;75.95;28.75;;;;;;;-3.49;100.00;97184.72;4991062;28;20399;-76
2024/01/19 04:26:28;;;;;;;102.13;35.35;;;;;;;-3.47;100.00;97175.84;4991042;28;20410;-76
2024/01/19 04:28:54;;;;;;;80.35;31.13;;;;;;;-3.42;100.00;97175.31;4991202;28;20405;-76
2024/01/19 04:31:21;;;;;;;92.35;33.45;;;;;;;-3.39;100.00;97182.75;4991039;28;20502;-76
2024/01/19 04:33:47;;;;;;;86.63;31.80;;;;;;;-3.36;100.00;97183.22;4991170;28;20478;-76
2024/01/19 04:36:13;;;;;;;99.53;37.65;;;;;;;-3.34;100.00;97186.44;4991059;28;20418;-76
2024/01/19 04:38:39;;;;;;;101.73;34.83;;;;;;;-3.29;100.00;97188.50;4991060;28;20708;-76
2024/01/19 04:41:07;;;;;;;93.78;34.40;;;;;;;-3.26;100.00;97188.19;4991477;28;20453;-76
2024/01/19 04:43:33;;;;;;;91.65;33.67;;;;;;;-3.24;100.00;97194.00;4991324;28;20391;-76
2024/01/19 04:45:59;;;;;;;88.07;32.88;;;;;;;-3.22;100.00;97194.63;4991046;28;20410;-76
2024/01/19 04:48:25;;;;;;;72.47;28.97;;;;;;;-3.22;100.00;97194.63;4994069;28;20472;-77
2024/01/19 04:50:51;;;;;;;94.75;33.92;;;;;;;-3.20;100.00;97198.66;4995391;28;20474;-77
2024/01/19 04:53:17;;;;;;;106.45;38.88;;;;;;;-3.16;100.00;97207.69;5007872;28;20416;-75
2024/01/19 04:55:43;;;;;;;105.60;38.92;;;;;;;-3.15;100.00;97206.72;5005688;28;20861;-75
2024/01/19 04:58:11;;;;;;;93.65;34.03;;;;;;;-3.14;100.00;97218.69;5004197;28;20411;-77
2024/01/19 05:00:37;;;;;;;85.57;31.87;;;;;;;-3.10;100.00;97228.72;4999301;28;20453;-77
2024/01/19 05:03:03;;;;;;;92.82;34.05;;;;;;;-3.06;100.00;97224.81;5003593;28;20413;-75
2024/01/19 05:05:30;;;;;;;95.28;32.97;;;;;;;-3.04;100.00;97228.03;5003982;28;20504;-74
2024/01/19 05:07:56;;;;;;;91.80;33.28;;;;;;;-3.02;100.00;97236.47;5006736;28;20909;-76
2024/01/19 05:10:22;;;;;;;97.00;34.80;;;;;;;-2.95;100.00;97237.38;4999877;28;20903;-76
2024/01/19 05:12:49;;;;;;;97.25;32.92;;;;;;;-2.93;100.00;97230.28;5007720;28;20404;-76
2024/01/19 05:15:17;;;;;;;81.63;30.27;;;;;;;-2.89;100.00;97231.53;4982947;28;20746;-76
2024/01/19 05:17:43;;;;;;;82.07;30.17;;;;;;;-2.86;100.00;97241.56;4974562;28;20439;-76
2024/01/19 05:20:10;;;;;;;116.38;40.50;;;;;;;-2.83;100.00;97246.38;4989906;28;20407;-77
2024/01/19 05:22:37;;;;;;;111.85;39.25;;;;;;;-2.79;100.00;97253.66;4983927;28;20781;-76
2024/01/19 05:25:03;;;;;;;126.40;43.55;;;;;;;-2.75;100.00;97254.09;4981192;28;20919;-79
2024/01/19 05:27:29;;;;;;;146.60;51.75;;;;;;;-2.71;100.00;97257.19;4976259;28;20495;-77
2024/01/19 05:29:56;;;;;;;115.47;41.20;;;;;;;-2.67;100.00;97259.25;4974667;28;20400;-76
2024/01/19 05:32:23;;;;;;;121.75;42.13;;;;;;;-2.64;100.00;97264.09;4974697;28;20400;-76
2024/01/19 05:34:49;;;;;;;101.13;36.43;;;;;;;-2.63;100.00;97267.50;4976401;28;20405;-78
2024/01/19 05:37:15;;;;;;;109.50;38.80;;;;;;;-2.64;100.00;97265.88;4976400;28;20474;-77
2024/01/19 05:39:42;;;;;;;110.85;38.90;;;;;;;-2.66;100.00;97273.00;4975984;28;20440;-77
2024/01/19 05:42:08;;;;;;;137.70;47.83;;;;;;;-2.73;100.00;97272.88;4975458;28;20412;-77
2024/01/19 05:44:34;;;;;;;140.27;48.28;;;;;;;-2.81;100.00;97272.91;4975612;28;20404;-76
2024/01/19 05:47:00;;;;;;;117.40;43.72;;;;;;;-2.89;100.00;97281.53;4975274;28;20495;-77
2024/01/19 05:49:27;;;;;;;112.60;43.15;;;;;;;-2.94;100.00;97285.63;4993036;28;20410;-78
2024/01/19 05:51:54;;;;;;;104.13;38.78;;;;;;;-2.98;100.00;97295.50;4995991;28;20407;-79
2024/01/19 05:54:20;;;;;;;88.57;35.17;;;;;;;-2.87;100.00;97302.09;4996091;28;20408;-76
2024/01/19 05:56:46;;;;;;;66.78;28.95;;;;;;;-2.84;100.00;97307.72;4993818;28;20517;-77
2024/01/19 05:59:12;;;;;;;67.13;27.40;;;;;;;-2.87;100.00;97302.91;4993248;28;20909;-77
2024/01/19 06:01:38;;;;;;;58.60;26.25;;;;;;;-2.90;100.00;97305.81;4994506;28;20409;-77
2024/01/19 06:04:04;;;;;;;54.65;24.13;;;;;;;-2.92;100.00;97318.13;4993797;28;20859;-77
2024/01/19 06:06:32;;;;;;;51.97;22.30;;;;;;;-2.93;100.00;97319.09;4992628;28;20402;-76
2024/01/19 06:08:58;;;;;;;82.80;34.97;;;;;;;-2.91;100.00;97329.28;4992213;28;20438;-77
2024/01/19 06:11:24;;;;;;;78.67;32.80;;;;;;;-2.88;100.00;97328.97;4993521;28;20461;-77
2024/01/19 06:13:51;;;;;;;99.03;38.42;;;;;;;-2.85;100.00;97331.19;4993507;28;20402;-77
2024/01/19 06:16:17;;;;;;;99.05;39.92;;;;;;;-2.81;100.00;97332.50;4992761;28;20422;-77
2024/01/19 06:18:44;;;;;;;79.57;32.38;;;;;;;-2.79;100.00;97335.72;4992693;28;20399;-76
2024/01/19 06:21:10;;;;;;;82.10;33.40;;;;;;;-2.78;100.00;97342.50;4992582;28;20399;-76
2024/01/19 06:23:38;;;;;;;86.40;34.97;;;;;;;-2.79;100.00;97349.50;4993026;28;20407;-76
2024/01/19 06:26:08;;;;;;;95.43;37.33;;;;;;;-2.77;100.00;97352.69;4992712;28;20402;-77
2024/01/19 06:28:34;;;;;;;81.10;33.63;;;;;;;-2.76;100.00;97354.31;4992929;28;20438;-76
2024/01/19 06:31:02;;;;;;;75.18;30.02;;;;;;;-2.74;100.00;97361.94;4992387;28;20465;-76
2024/01/19 06:33:28;;;;;;;68.53;28.23;;;;;;;-2.74;100.00;97359.34;4992939;28;20403;-76
2024/01/19 06:35:55;;;;;;;52.53;24.43;;;;;;;-2.72;100.00;97359.19;4992547;28;20525;-77
2024/01/19 06:38:21;;;;;;;69.15;27.00;;;;;;;-2.71;100.00;97356.41;4992629;28;20407;-76
2024/01/19 06:40:48;;;;;;;70.53;28.92;;;;;;;-2.71;100.00;97363.38;4992841;28;20485;-77
2024/01/19 06:43:14;;;;;;;61.75;26.80;;;;;;;-2.71;100.00;97377.16;4992303;28;20771;-76
2024/01/19 06:45:40;;;;;;;55.40;23.90;;;;;;;-2.72;100.00;97374.72;4992081;28;20406;-77
2024/01/19 06:48:07;;;;;;;61.40;24.27;;;;;;;-2.74;100.00;97383.47;4992547;28;20395;-76
2024/01/19 06:50:33;;;;;;;57.00;25.33;;;;;;;-2.74;100.00;97393.00;4992255;28;20775;-76
2024/01/19 06:53:00;;;;;;;53.80;23.17;;;;;;;-2.76;100.00;97390.59;4992245;28;20461;-76
2024/01/19 06:55:27;;;;;;;46.55;20.75;;;;;;;-2.77;100.00;97390.75;4992231;28;20396;-76
2024/01/19 06:57:55;;;;;;;46.90;19.83;;;;;;;-2.77;100.00;97395.94;4992341;28;20410;-76
2024/01/19 07:00:21;;;;;;;38.47;17.90;;;;;;;-2.77;100.00;97403.69;4991896;28;20732;-76
2024/01/19 07:02:47;;;;;;;37.58;17.35;;;;;;;-2.78;100.00;97415.03;4990962;28;20745;-76
2024/01/19 07:05:13;;;;;;;32.47;15.82;;;;;;;-2.79;100.00;97416.84;4972575;28;20403;-76
2024/01/19 07:07:40;;;;;;;61.30;24.73;;;;;;;-2.82;100.00;97424.13;4972820;28;20536;-76
2024/01/19 07:10:07;;;;;;;47.33;20.52;;;;;;;-2.85;100.00;97427.84;4972257;28;20439;-76
2024/01/19 07:12:34;;;;;;;43.50;19.23;;;;;;;-2.86;100.00;97436.59;4986069;28;20406;-76
2024/01/19 07:15:01;;;;;;;49.65;22.17;;;;;;;-2.88;100.00;97445.50;4991827;28;20884;-76
2024/01/19 07:17:28;;;;;;;49.22;21.08;;;;;;;-2.91;100.00;97448.41;4992069;28;20537;-76
2024/01/19 07:19:54;;;;;;;41.33;19.23;;;;;;;-2.96;100.00;97454.09;4991859;28;20864;-76
2024/01/19 07:22:20;;;;;;;36.17;17.47;;;;;;;-3.00;100.00;97455.38;4991725;28;20454;-76
2024/01/19 07:24:46;;;;;;;33.10;16.17;;;;;;;-3.04;100.00;97461.06;4991490;28;20403;-76
2024/01/19 07:27:12;;;;;;;34.08;16.38;;;;;;;-3.10;100.00;97459.94;4991531;28;20410;-76
2024/01/19 07:29:38;;;;;;;41.03;17.80;;;;;;;-3.15;100.00;97467.38;4991491;28;20406;-76
2024/01/19 07:32:06;;;;;;;32.65;16.33;;;;;;;-3.20;100.00;97467.88;4991673;28;20486;-76
2024/01/19 07:34:32;;;;;;;45.15;18.67;;;;;;;-3.24;100.00;97471.78;4992169;28;20399;-76
2024/01/19 07:36:58;;;;;;;30.67;15.27;;;;;;;-3.28;100.00;97473.06;4992964;28;20480;-76
2024/01/19 07:39:26;;;;;;;42.38;19.58;;;;;;;-3.30;100.00;97479.34;4991645;28;20486;-76
2024/01/19 07:41:52;;;;;;;50.00;21.23;;;;;;;-3.32;100.00;97484.72;4991487;28;20412;-76
2024/01/19 07:44:18;;;;;;;42.58;20.38;;;;;;;-3.30;100.00;97481.94;4991480;28;20460;-76
2024/01/19 07:46:44;;;;;;;45.83;21.27;;;;;;;-3.27;100.00;97490.19;4992018;28;20407;-76
2024/01/19 07:49:12;;;;;;;49.73;22.60;;;;;;;-3.21;100.00;97493.91;4991631;28;20409;-76
2024/01/19 07:51:39;;;;;;;45.40;21.10;;;;;;;-3.12;100.00;97498.94;4991522;28;20460;-76
2024/01/19 07:54:05;;;;;;;41.30;20.50;;;;;;;-2.99;100.00;97507.97;4991674;28;20394;-76
2024/01/19 07:56:31;;;;;;;43.47;19.80;;;;;;;-2.87;100.00;97509.28;4991186;28;20977;-76
2024/01/19 07:58:57;;;;;;;47.93;19.53;;;;;;;-2.77;100.00;97508.13;4991980;28;20399;-76
2024/01/19 08:01:23;;;;;;;42.65;19.02;;;;;;;-2.64;100.00;97519.78;4991653;28;20986;-76
2024/01/19 08:03:50;;;;;;;48.28;20.17;;;;;;;-2.55;100.00;97511.00;4991797;28;20414;-76
2024/01/19 08:06:17;;;;;;;51.20;19.75;;;;;;;-2.48;100.00;97515.34;4991499;28;20954;-76
2024/01/19 08:08:43;;;;;;;45.38;19.10;;;;;;;-2.44;100.00;97526.22;4991272;28;20438;-76
2024/01/19 08:11:09;;;;;;;46.00;18.75;;;;;;;-2.41;100.00;97531.06;4990907;28;20457;-76
2024/01/19 08:13:35;;;;;;;50.53;19.65;;;;;;;-2.39;100.00;97526.50;4991321;28;20504;-78
2024/01/19 08:16:02;;;;;;;52.40;21.27;;;;;;;-2.37;100.00;97533.16;4988129;28;20410;-77
2024/01/19 08:18:33;;;;;;;47.08;19.40;;;;;;;-2.36;100.00;97542.56;4980549;28;20400;-75
2024/01/19 08:21:01;;;;;;;60.13;21.05;;;;;;;-2.30;100.00;97551.44;4972745;28;20731;-76
2024/01/19 08:23:28;;;;;;;47.33;19.30;;;;;;;-2.20;100.00;97552.06;4976954;28;20404;-75
2024/01/19 08:25:54;;;;;;;49.65;18.98;;;;;;;-2.09;100.00;97546.50;4975984;28;20396;-76
2024/01/19 08:28:20;;;;;;;45.13;18.00;;;;;;;-2.00;100.00;97552.47;4976939;28;20928;-77
2024/01/19 08:30:49;;;;;;;44.85;18.13;;;;;;;-1.96;100.00;97558.97;4975418;28;21272;-76
2024/01/19 08:33:15;;;;;;;57.95;20.25;;;;;;;-1.95;100.00;97561.38;4975884;28;20786;-76
2024/01/19 08:35:42;;;;;;;45.15;18.17;;;;;;;-1.93;100.00;97560.41;4975852;28;20474;-76
2024/01/19 08:38:08;;;;;;;51.50;18.80;;;;;;;-1.92;100.00;97564.59;4975613;28;20754;-76
2024/01/19 08:40:35;;;;;;;50.80;18.55;;;;;;;-1.90;100.00;97567.84;4976088;28;20403;-76
2024/01/19 08:43:02;;;;;;;51.13;19.13;;;;;;;-1.88;100.00;97573.69;4976288;28;20423;-76
2024/01/19 08:45:28;;;;;;;58.97;20.63;;;;;;;-1.86;100.00;97575.13;4975850;28;20393;-76
2024/01/19 08:47:56;;;;;;;57.10;19.47;;;;;;;-1.82;100.00;97580.78;4975878;28;20441;-76
2024/01/19 08:50:22;;;;;;;56.20;20.08;;;;;;;-1.84;100.00;97580.97;4975669;28;20431;-76
2024/01/19 08:52:48;;;;;;;51.00;19.23;;;;;;;-1.88;100.00;97597.03;4979732;28;20396;-77
2024/01/19 08:55:14;;;;;;;64.40;21.40;;;;;;;-1.97;100.00;97596.25;4985184;28;20494;-76
2024/01/19 08:57:42;;;;;;;69.65;22.35;;;;;;;-2.07;100.00;97598.22;4994512;28;20907;-77
2024/01/19 09:00:10;;;;;;;48.85;19.17;;;;;;;-2.14;100.00;97605.84;4994740;28;20421;-76
2024/01/19 09:02:36;;;;;;;62.17;23.45;;;;;;;-2.13;100.00;97602.28;4984828;28;20451;-76
2024/01/19 09:05:03;;;;;;;56.50;22.25;;;;;;;-2.13;100.00;97601.47;4975065;28;20419;-76
2024/01/19 09:07:29;;;;;;;53.37;20.77;;;;;;;-2.13;100.00;97606.66;4979459;28;20492;-76
2024/01/19 09:09:55;;;;;;;57.35;20.55;;;;;;;-2.17;100.00;97608.75;4985196;28;20402;-76
2024/01/19 09:12:21;;;;;;;53.15;20.75;;;;;;;-2.17;100.00;97613.94;4983640;28;20459;-76
2024/01/19 09:14:49;;;;;;;59.10;21.38;;;;;;;-2.10;100.00;97619.28;4983324;28;20741;-76
2024/01/19 09:17:15;;;;;;;56.23;21.10;;;;;;;-2.03;100.00;97626.22;4984812;28;20418;-76
2024/01/19 09:19:41;;;;;;;62.78;23.23;;;;;;;-1.92;100.00;97621.69;4983470;28;20443;-76
2024/01/19 09:22:07;;;;;;;72.30;26.30;;;;;;;-1.82;100.00;97628.31;4985361;28;20471;-76
2024/01/19 09:24:34;;;;;;;74.40;27.63;;;;;;;-1.69;100.00;97632.97;4982587;28;20798;-76
2024/01/19 09:27:00;;;;;;;90.47;30.40;;;;;;;-1.54;100.00;97646.03;4984084;28;20461;-76
2024/01/19 09:29:26;;;;;;;87.90;31.17;;;;;;;-1.39;100.00;97655.56;4984052;28;20404;-77
2024/01/19 09:31:53;;;;;;;88.68;32.30;;;;;;;-1.27;100.00;97664.56;4982653;28;20401;-77
2024/01/19 09:34:19;;;;;;;84.32;31.20;;;;;;;-1.13;100.00;97667.44;4983656;28;20521;-76
2024/01/19 09:36:46;;;;;;;91.25;31.77;;;;;;;-0.98;100.00;97673.53;4984853;28;20826;-76
2024/01/19 09:39:12;;;;;;;99.53;32.97;;;;;;;-0.85;100.00;97682.38;4984683;28;20695;-76
2024/01/19 09:41:39;;;;;;;164.10;53.88;;;;;;;-0.70;100.00;97679.84;4986113;28;20902;-76
2024/01/19 09:44:08;;;;;;;195.07;61.83;;;;;;;-0.65;100.00;97681.94;4983846;28;20745;-76
2024/01/19 09:46:46;;;;;;;151.57;52.03;;;;;;;-0.59;100.00;97684.63;4984977;28;20403;-76
2024/01/19 09:49:23;;;;;;;137.95;49.40;;;;;;;-0.50;100.00;97694.00;4983821;28;20400;-76
2024/01/19 09:51:56;;;;;;;118.85;42.70;;;;;;;-0.46;100.00;97689.28;4980542;28;20397;-76
2024/01/19 09:54:29;;;;;;;94.63;35.80;;;;;;;-0.38;100.00;97691.00;4984067;28;20386;-76
2024/01/19 09:56:55;;;;;;;77.07;31.40;;;;;;;-0.27;100.00;97704.41;4984074;28;20418;-76
2024/01/19 09:59:23;;;;;;;73.18;28.02;;;;;;;-0.19;100.00;97706.94;4981983;28;20408;-76
2024/01/19 10:01:54;;;;;;;76.75;29.33;;;;;;;-0.12;100.00;97714.84;4984610;28;20457;-77
2024/01/19 10:04:22;;;;;;;68.03;25.98;;;;;;;-0.03;100.00;97709.41;4982838;28;20407;-77
2024/01/19 10:06:49;;;;;;;65.00;26.37;;;;;;;0.11;100.00;97715.63;4982817;28;20438;-76
2024/01/19 10:09:16;;;;;;;59.35;24.00;;;;;;;0.19;100.00;97715.53;4980110;28;20894;-76
2024/01/19 10:11:45;;;;;;;60.05;24.55;;;;;;;0.25;100.00;97714.00;4978989;28;20399;-76
2024/01/19 10:14:11;;;;;;;84.30;28.80;;;;;;;0.18;100.00;97715.72;4995920;28;20412;-76
2024/01/19 10:16:38;;;;;;;77.22;27.27;;;;;;;0.06;100.00;97727.56;5000415;28;20848;-76
2024/01/19 10:19:08;;;;;;;74.57;28.30;;;;;;;0.00;100.00;97734.28;4996116;28;20533;-76
2024/01/19 10:21:36;;;;;;;65.45;26.85;;;;;;;0.13;100.00;97734.47;4996575;28;20461;-76
2024/01/19 10:24:08;;;;;;;90.43;24.95;;;;;;;1.09;100.00;97739.63;5001919;28;20486;-77
2024/01/19 10:26:36;;;;;;;113.60;21.65;;;;;;;2.43;100.00;97738.88;5000085;28;20412;-77
2024/01/19 10:29:09;;;;;;;41.97;14.83;;;;;;;3.60;100.00;97744.06;5000653;28;20401;-77
2024/01/19 10:31:35;;;;;;;34.70;16.57;;;;;;;4.37;100.00;97738.25;5001522;28;20397;-78
2024/01/19 10:34:02;;;;;;;21.48;13.15;;;;;;;4.74;100.00;97750.72;5001066;28;20434;-77
2024/01/19 10:36:38;;;;;;;15.33;11.47;;;;;;;4.39;100.00;97749.34;5000827;28;20472;-77
2024/01/19 10:39:17;;;;;;;18.38;12.20;;;;;;;4.49;100.00;97761.06;4998549;28;20920;-77
2024/01/19 10:41:43;;;;;;;19.25;13.48;;;;;;;4.67;100.00;97752.53;5001500;28;20472;-77
2024/01/19 10:44:14;;;;;;;14.52;9.77;;;;;;;5.12;100.00;97744.75;5000442;28;20488;-78
2024/01/19 10:46:40;;;;;;;9.18;8.02;;;;;;;4.96;100.00;97743.41;4995593;28;20406;-77
2024/01/19 10:49:08;;;;;;;9.32;7.85;;;;;;;5.00;100.00;97736.75;5000880;28;20402;-78
2024/01/19 10:51:37;;;;;;;13.43;10.45;;;;;;;5.14;100.00;97745.38;5003268;28;20393;-78
2024/01/19 10:54:03;;;;;;;12.90;7.97;;;;;;;5.75;100.00;97740.44;5000151;28;20401;-77
2024/01/19 10:56:29;;;;;;;6.70;5.70;;;;;;;6.52;100.00;97739.28;5005176;28;20418;-78
2024/01/19 10:59:08;;;;;;;7.47;5.85;;;;;;;7.16;100.00;97738.81;5001249;28;20497;-76
2024/01/19 11:01:34;;;;;;;8.30;6.07;;;;;;;7.68;100.00;97747.06;5003680;28;20403;-78
2024/01/19 11:04:01;;;;;;;12.15;8.25;;;;;;;7.47;100.00;97744.91;5001050;28;20487;-79
2024/01/19 11:06:28;;;;;;;9.43;6.78;;;;;;;7.53;100.00;97744.81;5005608;28;20886;-79